Time;durP1;ratioP1;P1;durP2;ratioP2;P2;SDS_P1;SDS_P2;PMS_P1;PMS_P2;Temp;Humidity;BMP_temperature;BMP_pressure;BME280_temperature;BME280_humidity;BME280_pressure;Samples;Min_cycle;Max_cycle;Signal;HPM_P1;HPM_P2
2022/03/09 00:00:23;;;;;;;13.33;7.50;;;-2.50;99.90;;;;;;5001866;28;20195;-80
2022/03/09 00:02:49;;;;;;;11.80;7.10;;;-2.20;99.90;;;;;;5001216;28;20265;-80
2022/03/09 00:05:14;;;;;;;13.17;7.60;;;-2.50;99.90;;;;;;5001143;28;20198;-80
2022/03/09 00:07:40;;;;;;;13.70;7.73;;;-2.50;99.90;;;;;;4999688;28;20183;-80
2022/03/09 00:10:07;;;;;;;14.53;7.50;;;-1.30;99.90;;;;;;5000251;28;20176;-80
2022/03/09 00:12:34;;;;;;;12.97;7.57;;;-2.50;99.90;;;;;;5000082;28;20215;-80
2022/03/09 00:15:00;;;;;;;14.77;8.07;;;-2.50;99.90;;;;;;5001230;28;20442;-80
2022/03/09 00:17:25;;;;;;;11.27;7.23;;;-2.50;99.90;;;;;;5001548;28;20418;-80
2022/03/09 00:19:51;;;;;;;12.20;7.27;;;-1.30;99.90;;;;;;4999758;28;20695;-81
2022/03/09 00:22:17;;;;;;;14.40;8.27;;;-2.50;99.90;;;;;;4999864;28;20696;-80
2022/03/09 00:24:43;;;;;;;11.50;6.93;;;-2.50;99.90;;;;;;5001036;28;20200;-80
2022/03/09 00:27:09;;;;;;;12.87;6.23;;;-2.20;99.90;;;;;;5000609;28;20188;-80
2022/03/09 00:29:35;;;;;;;11.80;6.63;;;-2.60;99.90;;;;;;4999665;28;20777;-81
2022/03/09 00:32:00;;;;;;;18.83;7.43;;;-2.60;99.90;;;;;;5001176;28;20180;-80
2022/03/09 00:34:26;;;;;;;12.53;6.73;;;-2.60;99.90;;;;;;4999289;28;20661;-81
2022/03/09 00:36:52;;;;;;;11.73;6.53;;;-2.70;99.90;;;;;;5000903;28;20652;-80
2022/03/09 00:39:17;;;;;;;13.43;6.97;;;-2.70;99.90;;;;;;4999118;28;20654;-80
2022/03/09 00:41:43;;;;;;;11.50;7.63;;;-2.70;99.90;;;;;;4998612;28;20199;-80
2022/03/09 00:44:09;;;;;;;10.77;6.10;;;-2.70;99.90;;;;;;4998663;28;20719;-80
2022/03/09 00:46:35;;;;;;;11.67;7.03;;;-2.80;99.90;;;;;;4999974;28;20226;-80
2022/03/09 00:49:01;;;;;;;13.60;6.73;;;-2.80;99.90;;;;;;4998104;28;20528;-80
2022/03/09 00:51:27;;;;;;;10.77;7.07;;;-2.80;99.90;;;;;;4998965;28;20179;-80
2022/03/09 00:53:53;;;;;;;13.63;7.30;;;-2.80;99.90;;;;;;4999755;28;20445;-80
2022/03/09 00:56:19;;;;;;;14.27;7.80;;;-2.80;99.90;;;;;;4998895;28;20419;-80
2022/03/09 00:58:46;;;;;;;11.83;6.73;;;-2.80;99.90;;;;;;4999506;28;20192;-80
2022/03/09 01:01:11;;;;;;;14.23;7.67;;;-2.80;99.90;;;;;;4999315;28;20206;-80
2022/03/09 01:03:37;;;;;;;14.57;7.37;;;-2.80;99.90;;;;;;4998409;28;20426;-80
2022/03/09 01:06:03;;;;;;;11.17;7.10;;;-2.80;99.90;;;;;;5000094;28;20255;-80
2022/03/09 01:08:29;;;;;;;14.50;7.40;;;-2.70;99.90;;;;;;4998349;28;20191;-80
2022/03/09 01:10:54;;;;;;;14.23;6.93;;;-2.80;99.90;;;;;;5000871;28;20419;-80
2022/03/09 01:13:21;;;;;;;11.80;7.30;;;-2.80;99.90;;;;;;4998924;28;20261;-80
2022/03/09 01:15:48;;;;;;;10.93;6.80;;;-2.80;99.90;;;;;;4999734;28;20354;-80
2022/03/09 01:18:14;;;;;;;12.83;7.23;;;-2.80;99.90;;;;;;4999986;28;20447;-80
2022/03/09 01:20:40;;;;;;;13.20;7.07;;;-2.80;99.90;;;;;;4999319;28;20426;-80
2022/03/09 01:23:06;;;;;;;13.10;7.47;;;-2.80;99.90;;;;;;4999786;28;20172;-80
2022/03/09 01:25:32;;;;;;;14.90;7.00;;;-2.80;99.90;;;;;;5004013;28;20444;-80
2022/03/09 01:27:57;;;;;;;14.73;7.07;;;-2.80;99.90;;;;;;5001575;28;20179;-80
2022/03/09 01:30:23;;;;;;;13.77;7.00;;;-2.90;99.90;;;;;;4999409;28;20755;-80
2022/03/09 01:32:49;;;;;;;12.57;6.60;;;-2.90;99.90;;;;;;4999850;28;20542;-80
2022/03/09 01:35:15;;;;;;;11.80;7.07;;;-2.90;99.90;;;;;;4998967;28;20231;-80
2022/03/09 01:37:41;;;;;;;9.87;6.27;;;-2.90;99.90;;;;;;4999226;28;20223;-80
2022/03/09 01:40:08;;;;;;;13.57;6.97;;;-2.90;99.90;;;;;;4994922;28;20263;-80
2022/03/09 01:42:33;;;;;;;10.10;5.73;;;-2.90;99.90;;;;;;4995916;28;20454;-80
2022/03/09 01:45:07;;;;;;;13.23;6.87;;;-2.80;99.90;;;;;;4999462;28;20491;-80
2022/03/09 01:47:34;;;;;;;12.23;6.57;;;-2.90;99.90;;;;;;4998993;28;20168;-80
2022/03/09 01:49:59;;;;;;;10.90;6.67;;;-2.90;99.90;;;;;;4997836;28;20464;-80
2022/03/09 01:52:26;;;;;;;10.37;6.23;;;-2.90;99.90;;;;;;4999034;28;20418;-81
2022/03/09 01:54:53;;;;;;;13.77;7.00;;;-2.90;99.90;;;;;;4999056;28;20211;-80
2022/03/09 01:57:22;;;;;;;11.63;6.40;;;-2.90;99.90;;;;;;4998491;28;20501;-80
2022/03/09 01:59:52;;;;;;;11.73;6.53;;;-3.00;99.90;;;;;;4996110;28;20423;-80
2022/03/09 02:02:18;;;;;;;12.83;7.37;;;-3.00;99.90;;;;;;4997152;28;20465;-79
2022/03/09 02:04:45;;;;;;;11.30;6.53;;;-3.10;99.90;;;;;;4997691;28;20435;-80
2022/03/09 02:07:12;;;;;;;13.97;6.07;;;-3.20;99.90;;;;;;4996163;28;20757;-80
2022/03/09 02:09:47;;;;;;;14.40;7.37;;;-3.30;99.90;;;;;;4996109;28;20411;-80
2022/03/09 02:12:15;;;;;;;10.63;6.57;;;-3.40;99.90;;;;;;4996440;28;20418;-80
2022/03/09 02:14:46;;;;;;;12.57;7.47;;;-3.40;99.90;;;;;;4997472;28;20430;-81
2022/03/09 02:17:16;;;;;;;14.87;7.10;;;-3.40;99.90;;;;;;4996129;28;20442;-80
2022/03/09 02:19:45;;;;;;;9.83;5.83;;;-3.50;99.90;;;;;;4996096;28;20419;-80
2022/03/09 02:22:19;;;;;;;10.60;6.47;;;-3.50;99.90;;;;;;4997231;28;20490;-80
2022/03/09 02:24:46;;;;;;;11.93;6.27;;;-3.50;99.90;;;;;;4996733;28;20457;-80
2022/03/09 02:27:12;;;;;;;10.00;6.60;;;-3.50;99.90;;;;;;4997954;28;20418;-79
2022/03/09 02:29:38;;;;;;;8.60;5.40;;;-3.50;99.90;;;;;;4997087;28;20441;-80
2022/03/09 02:32:06;;;;;;;12.37;6.40;;;-3.40;99.90;;;;;;4996502;28;20822;-80
2022/03/09 02:34:31;;;;;;;13.63;7.07;;;-3.40;99.90;;;;;;4996780;28;20199;-80
2022/03/09 02:36:58;;;;;;;10.80;5.53;;;-3.40;99.90;;;;;;4997069;28;20425;-80
2022/03/09 02:39:24;;;;;;;11.40;6.77;;;-3.40;99.90;;;;;;4995871;28;20183;-79
2022/03/09 02:41:50;;;;;;;9.87;5.90;;;-2.00;99.90;;;;;;4996240;28;20489;-80
2022/03/09 02:44:16;;;;;;;13.40;6.80;;;-3.40;99.90;;;;;;4995996;28;20442;-79
2022/03/09 02:46:42;;;;;;;11.67;6.67;;;-3.50;99.90;;;;;;4997315;28;20225;-80
2022/03/09 02:49:07;;;;;;;13.93;7.10;;;-3.50;99.90;;;;;;4997442;28;20411;-79
2022/03/09 02:51:33;;;;;;;10.73;5.87;;;-3.50;99.90;;;;;;4996059;28;20186;-80
2022/03/09 02:53:59;;;;;;;11.73;6.63;;;-3.50;99.90;;;;;;4995826;28;20737;-80
2022/03/09 02:56:25;;;;;;;12.00;6.50;;;-3.50;99.90;;;;;;4997404;28;20175;-80
2022/03/09 02:58:51;;;;;;;11.57;6.87;;;-3.50;99.90;;;;;;4996241;28;20190;-79
2022/03/09 03:01:16;;;;;;;13.47;6.47;;;-3.50;99.90;;;;;;4997106;28;20794;-80
2022/03/09 03:03:43;;;;;;;14.00;6.67;;;-3.50;99.90;;;;;;4995669;28;20206;-80
2022/03/09 03:06:10;;;;;;;14.53;7.03;;;-3.50;99.90;;;;;;4996735;28;20267;-80
2022/03/09 03:08:40;;;;;;;13.37;7.30;;;-3.50;99.90;;;;;;4996148;28;20463;-79
2022/03/09 03:11:08;;;;;;;11.57;7.13;;;-3.50;99.90;;;;;;4995791;28;20423;-80
2022/03/09 03:13:34;;;;;;;12.17;7.30;;;-3.50;99.90;;;;;;4999496;28;20433;-79
2022/03/09 03:16:00;;;;;;;10.47;6.20;;;-3.50;99.90;;;;;;5002759;28;20414;-80
2022/03/09 03:18:25;;;;;;;11.03;5.93;;;-3.40;99.90;;;;;;4995290;28;20490;-80
2022/03/09 03:20:54;;;;;;;9.43;6.57;;;-3.40;99.90;;;;;;4995048;28;20180;-80
2022/03/09 03:23:24;;;;;;;12.33;6.60;;;-3.40;99.90;;;;;;4994641;28;20176;-80
2022/03/09 03:25:50;;;;;;;14.03;6.67;;;-3.40;99.90;;;;;;4996909;28;20452;-80
2022/03/09 03:28:16;;;;;;;10.20;6.30;;;-3.40;99.90;;;;;;4996274;28;20501;-80
2022/03/09 03:30:45;;;;;;;12.87;7.27;;;-3.40;99.90;;;;;;4996416;28;20407;-80
2022/03/09 03:33:13;;;;;;;10.23;6.33;;;-3.40;99.90;;;;;;4996292;28;20399;-80
2022/03/09 03:35:38;;;;;;;11.10;6.33;;;-3.50;99.90;;;;;;4995011;28;20442;-80
2022/03/09 03:38:04;;;;;;;13.93;7.73;;;-3.50;99.90;;;;;;4995290;28;20423;-79
2022/03/09 03:40:30;;;;;;;13.43;7.30;;;-3.50;99.90;;;;;;4995120;28;20175;-80
2022/03/09 03:42:55;;;;;;;9.50;5.70;;;-3.40;99.90;;;;;;4995048;28;20533;-79
2022/03/09 03:45:21;;;;;;;15.40;7.13;;;-3.40;99.90;;;;;;4995489;28;20237;-79
2022/03/09 03:47:47;;;;;;;12.53;7.03;;;-3.40;99.90;;;;;;4995469;28;20183;-80
2022/03/09 03:50:13;;;;;;;15.97;6.90;;;-3.40;99.90;;;;;;4995420;28;20179;-80
2022/03/09 03:52:39;;;;;;;11.30;6.57;;;-3.50;99.90;;;;;;4997263;28;20160;-79
2022/03/09 03:55:05;;;;;;;9.87;5.63;;;-3.40;99.90;;;;;;4997337;28;20278;-80
2022/03/09 03:57:30;;;;;;;13.17;6.27;;;-3.40;99.90;;;;;;4995449;28;20189;-80
2022/03/09 03:59:56;;;;;;;13.03;7.80;;;-3.40;99.90;;;;;;4997835;28;20561;-80
2022/03/09 04:02:22;;;;;;;14.37;7.57;;;-3.40;99.90;;;;;;4997130;28;20207;-80
2022/03/09 04:04:50;;;;;;;11.10;6.17;;;-1.80;99.90;;;;;;4996773;28;20222;-80
2022/03/09 04:07:16;;;;;;;12.27;6.33;;;-3.30;99.90;;;;;;5000061;28;20172;-79
2022/03/09 04:09:42;;;;;;;14.03;6.70;;;-3.40;99.90;;;;;;5006204;28;20407;-80
2022/03/09 04:12:08;;;;;;;14.83;7.57;;;-2.50;99.90;;;;;;4994349;28;20431;-79
2022/03/09 04:14:34;;;;;;;13.27;6.50;;;-3.40;99.90;;;;;;4994511;28;20640;-79
2022/03/09 04:17:00;;;;;;;10.53;6.57;;;-3.40;99.90;;;;;;4995307;28;20449;-80
2022/03/09 04:19:25;;;;;;;10.73;7.20;;;-3.40;99.90;;;;;;4993679;28;20182;-79
2022/03/09 04:21:51;;;;;;;12.23;6.93;;;-3.40;99.90;;;;;;4993501;28;20291;-80
2022/03/09 04:24:17;;;;;;;12.70;7.37;;;-3.40;99.90;;;;;;4995311;28;20623;-80
2022/03/09 04:26:43;;;;;;;10.77;6.57;;;-3.50;99.90;;;;;;4997301;28;20263;-79
2022/03/09 04:29:08;;;;;;;14.43;7.70;;;-3.50;99.90;;;;;;4997584;28;20183;-80
2022/03/09 04:31:34;;;;;;;10.57;7.03;;;-3.40;99.90;;;;;;4997698;28;20179;-80
2022/03/09 04:34:00;;;;;;;11.43;6.87;;;-3.40;99.90;;;;;;4997657;28;20206;-80
2022/03/09 04:36:25;;;;;;;14.70;6.90;;;-3.50;99.90;;;;;;4998700;28;20191;-80
2022/03/09 04:38:51;;;;;;;14.97;6.20;;;-3.50;99.90;;;;;;4999475;28;20176;-80
2022/03/09 04:41:16;;;;;;;12.13;7.27;;;-3.50;99.90;;;;;;4999524;28;20696;-80
2022/03/09 04:43:42;;;;;;;14.07;7.77;;;-3.70;99.90;;;;;;4998320;28;20246;-80
2022/03/09 04:46:08;;;;;;;11.00;6.53;;;-3.60;99.90;;;;;;4997978;28;20266;-79
2022/03/09 04:48:33;;;;;;;12.87;6.90;;;-3.70;99.90;;;;;;4999632;28;20176;-80
2022/03/09 04:51:02;;;;;;;16.23;6.43;;;-3.80;99.90;;;;;;4997869;28;20175;-80
2022/03/09 04:53:28;;;;;;;14.93;8.20;;;-3.80;99.90;;;;;;4997583;28;20180;-80
2022/03/09 04:55:55;;;;;;;13.27;6.97;;;-3.80;99.90;;;;;;4998552;28;20454;-80
2022/03/09 04:58:21;;;;;;;11.83;6.43;;;-3.80;99.90;;;;;;4997762;28;20423;-79
2022/03/09 05:00:47;;;;;;;11.20;6.50;;;-3.90;99.90;;;;;;4999411;28;20468;-80
2022/03/09 05:03:12;;;;;;;11.77;6.63;;;-3.90;99.90;;;;;;4998441;28;20494;-80
2022/03/09 05:05:39;;;;;;;9.77;5.93;;;-3.90;99.90;;;;;;4997643;28;20229;-80
2022/03/09 05:08:05;;;;;;;15.30;6.93;;;-3.90;99.90;;;;;;4997412;28;20193;-80
2022/03/09 05:10:30;;;;;;;10.93;6.10;;;-3.90;99.90;;;;;;4997320;28;20411;-80
2022/03/09 05:12:56;;;;;;;13.43;6.67;;;-3.90;99.90;;;;;;4998120;28;20540;-80
2022/03/09 05:15:22;;;;;;;13.33;7.10;;;-3.80;99.90;;;;;;4998260;28;20266;-80
2022/03/09 05:17:47;;;;;;;9.47;5.17;;;-3.80;99.90;;;;;;4998361;28;20180;-80
2022/03/09 05:20:15;;;;;;;12.13;6.83;;;-3.80;99.90;;;;;;4998660;28;20179;-80
2022/03/09 05:22:41;;;;;;;12.47;6.60;;;;;;;;;;4996553;28;20550;-80
2022/03/09 05:25:08;;;;;;;10.90;6.37;;;-3.80;99.90;;;;;;4998782;28;20432;-80
2022/03/09 05:27:33;;;;;;;11.63;6.80;;;-3.80;99.90;;;;;;4998537;28;20927;-80
2022/03/09 05:29:59;;;;;;;13.83;6.90;;;-3.80;99.90;;;;;;4997163;28;20415;-80
2022/03/09 05:32:25;;;;;;;15.83;7.50;;;-3.80;99.90;;;;;;4998782;28;20176;-83
2022/03/09 05:34:51;;;;;;;11.97;7.00;;;-3.80;99.90;;;;;;4997252;28;20327;-80
2022/03/09 05:37:17;;;;;;;13.10;7.67;;;-3.80;99.90;;;;;;4998553;28;20179;-80
2022/03/09 05:39:43;;;;;;;12.17;7.23;;;-3.80;99.90;;;;;;4998887;28;20186;-79
2022/03/09 05:42:09;;;;;;;16.87;7.13;;;-3.80;99.90;;;;;;4998631;28;20451;-80
2022/03/09 05:44:35;;;;;;;15.00;7.80;;;-3.80;99.90;;;;;;4997883;28;20191;-80
2022/03/09 05:47:01;;;;;;;15.20;7.93;;;-3.80;99.90;;;;;;4998623;28;20231;-80
2022/03/09 05:49:26;;;;;;;11.03;7.00;;;-3.80;99.90;;;;;;4996969;28;20179;-80
2022/03/09 05:51:55;;;;;;;14.93;7.90;;;-3.80;99.90;;;;;;4997370;28;20545;-80
2022/03/09 05:54:21;;;;;;;13.03;8.00;;;-3.90;99.90;;;;;;4997963;28;20227;-80
2022/03/09 05:56:46;;;;;;;13.23;7.33;;;-3.90;99.90;;;;;;4997147;28;20491;-80
2022/03/09 05:59:12;;;;;;;17.33;7.80;;;-3.90;99.90;;;;;;4998525;28;20442;-80
2022/03/09 06:01:38;;;;;;;15.03;7.97;;;-3.90;99.90;;;;;;4997445;28;20346;-80
2022/03/09 06:04:04;;;;;;;11.90;6.53;;;-3.90;99.90;;;;;;4998803;28;20191;-82
2022/03/09 06:06:30;;;;;;;10.90;6.83;;;-3.90;99.90;;;;;;4997592;28;20290;-80
2022/03/09 06:08:57;;;;;;;8.77;5.77;;;-3.90;99.90;;;;;;4998088;28;20442;-80
2022/03/09 06:11:23;;;;;;;11.50;6.63;;;-3.90;99.90;;;;;;4996878;28;20183;-80
2022/03/09 06:13:49;;;;;;;10.53;5.57;;;-3.90;99.90;;;;;;4999099;28;20422;-81
2022/03/09 06:16:14;;;;;;;11.93;6.33;;;-3.90;99.90;;;;;;4998673;28;20202;-80
2022/03/09 06:18:40;;;;;;;10.93;6.43;;;-3.90;99.90;;;;;;4999372;28;20218;-80
2022/03/09 06:21:06;;;;;;;13.30;6.93;;;-3.90;99.90;;;;;;4999580;28;20257;-80
2022/03/09 06:23:32;;;;;;;13.03;6.57;;;-3.90;99.90;;;;;;5000277;28;20305;-80
2022/03/09 06:25:59;;;;;;;11.87;6.47;;;-3.80;99.90;;;;;;4997072;28;20180;-80
2022/03/09 06:28:25;;;;;;;11.60;6.67;;;-2.50;99.90;;;;;;4997778;28;20411;-80
2022/03/09 06:30:51;;;;;;;11.57;6.30;;;-3.70;99.90;;;;;;4996604;28;20792;-80
2022/03/09 06:33:17;;;;;;;10.87;6.93;;;-3.70;99.90;;;;;;4996149;28;20172;-80
2022/03/09 06:35:43;;;;;;;11.97;6.63;;;-3.60;99.90;;;;;;4997324;28;20218;-81
2022/03/09 06:38:09;;;;;;;12.93;7.00;;;-3.60;99.90;;;;;;4995797;28;20437;-80
2022/03/09 06:40:35;;;;;;;11.73;6.60;;;-3.50;99.90;;;;;;4995558;28;20423;-80
2022/03/09 06:43:01;;;;;;;9.47;5.83;;;-3.50;99.90;;;;;;4997035;28;20464;-79
2022/03/09 06:45:27;;;;;;;11.87;6.77;;;-3.40;99.90;;;;;;4996207;28;20195;-80
2022/03/09 06:47:53;;;;;;;10.60;6.63;;;-3.30;99.90;;;;;;4994809;28;20171;-79
2022/03/09 06:50:19;;;;;;;14.97;6.77;;;-3.20;99.90;;;;;;4995481;28;20413;-80
2022/03/09 06:52:45;;;;;;;16.03;6.83;;;-3.20;99.90;;;;;;4996268;28;20176;-80
2022/03/09 06:55:12;;;;;;;11.63;6.60;;;-3.10;99.90;;;;;;4996845;28;20466;-81
2022/03/09 06:57:39;;;;;;;10.77;6.27;;;-3.00;99.90;;;;;;4995729;28;20186;-81
2022/03/09 07:00:08;;;;;;;10.50;5.90;;;-2.80;99.90;;;;;;4995848;28;20491;-82
2022/03/09 07:02:33;;;;;;;13.23;6.30;;;-2.80;99.90;;;;;;4995901;28;20455;-81
2022/03/09 07:04:59;;;;;;;11.23;5.43;;;-2.70;99.90;;;;;;4995246;28;20449;-84
2022/03/09 07:07:25;;;;;;;11.60;6.37;;;-2.60;99.90;;;;;;4995263;28;20190;-81
2022/03/09 07:09:50;;;;;;;10.00;5.90;;;-2.50;99.90;;;;;;4995292;28;20595;-81
2022/03/09 07:12:16;;;;;;;12.63;5.80;;;-2.40;99.90;;;;;;4994950;28;20176;-81
2022/03/09 07:14:42;;;;;;;11.90;6.70;;;-1.10;99.90;;;;;;4995569;28;20198;-82
2022/03/09 07:17:07;;;;;;;9.53;6.10;;;-2.20;99.90;;;;;;4994124;28;20183;-82
2022/03/09 07:19:33;;;;;;;11.13;6.50;;;-1.00;99.90;;;;;;4994210;28;20271;-82
2022/03/09 07:21:59;;;;;;;9.37;6.23;;;-1.80;99.90;;;;;;4997030;28;20207;-82
2022/03/09 07:24:25;;;;;;;11.67;6.60;;;-1.60;99.90;;;;;;4996895;28;20196;-82
2022/03/09 07:26:50;;;;;;;11.27;6.27;;;-0.40;99.90;;;;;;4998459;28;20171;-82
2022/03/09 07:29:17;;;;;;;13.47;6.03;;;-1.20;99.90;;;;;;4998884;28;20172;-82
2022/03/09 07:31:43;;;;;;;9.50;5.13;;;-1.10;99.90;;;;;;4999100;28;20765;-82
2022/03/09 07:34:08;;;;;;;11.83;5.00;;;-1.10;99.90;;;;;;4997261;28;20434;-82
2022/03/09 07:36:34;;;;;;;11.87;5.70;;;-0.10;99.90;;;;;;5000959;28;20422;-82
2022/03/09 07:39:00;;;;;;;14.37;7.00;;;0.20;99.90;;;;;;4998698;28;20179;-82
2022/03/09 07:41:26;;;;;;;8.90;6.07;;;-0.60;99.90;;;;;;4996954;28;20203;-82
2022/03/09 07:43:51;;;;;;;15.40;7.37;;;1.30;99.90;;;;;;4997366;28;20176;-82
2022/03/09 07:46:17;;;;;;;13.77;8.97;;;0.60;99.10;;;;;;4998973;28;20229;-82
2022/03/09 07:48:43;;;;;;;9.77;6.83;;;0.80;97.00;;;;;;4998010;28;20180;-83
2022/03/09 07:51:08;;;;;;;10.77;6.60;;;1.50;94.60;;;;;;4997512;28;20190;-82
2022/03/09 07:53:34;;;;;;;9.33;6.10;;;2.40;91.70;;;;;;4997870;28;20646;-83
2022/03/09 07:56:00;;;;;;;10.27;5.63;;;3.00;87.80;;;;;;4998108;28;20657;-83
2022/03/09 07:58:26;;;;;;;9.73;5.63;;;3.10;84.10;;;;;;4999461;28;20180;-82
2022/03/09 08:00:51;;;;;;;11.80;5.67;;;3.60;82.00;;;;;;5001465;28;20683;-82
2022/03/09 08:03:17;;;;;;;11.80;6.40;;;4.00;79.10;;;;;;5001348;28;20577;-82
2022/03/09 08:05:44;;;;;;;10.17;6.73;;;4.20;76.10;;;;;;5001758;28;20200;-82
2022/03/09 08:08:10;;;;;;;11.40;6.10;;;4.30;76.00;;;;;;5002250;28;20600;-82
2022/03/09 08:10:36;;;;;;;11.47;7.37;;;4.60;74.40;;;;;;5000721;28;20203;-82
2022/03/09 08:13:02;;;;;;;11.17;7.27;;;5.00;72.70;;;;;;5001598;28;20534;-82
2022/03/09 08:15:27;;;;;;;12.97;7.27;;;5.60;70.60;;;;;;5002099;28;20287;-83
2022/03/09 08:17:53;;;;;;;11.60;7.43;;;5.90;68.60;;;;;;5001763;28;20200;-82
2022/03/09 08:20:19;;;;;;;9.67;7.17;;;6.00;67.40;;;;;;5000623;28;20177;-82
2022/03/09 08:22:45;;;;;;;11.40;7.83;;;6.40;67.00;;;;;;5000673;28;20206;-82
2022/03/09 08:25:11;;;;;;;14.73;7.77;;;6.80;65.20;;;;;;5002314;28;20201;-82
2022/03/09 08:27:36;;;;;;;12.27;7.77;;;7.10;63.70;;;;;;5001733;28;20173;-82
2022/03/09 08:30:04;;;;;;;12.07;8.07;;;7.30;61.60;;;;;;5001663;28;20241;-82
2022/03/09 08:32:29;;;;;;;12.23;7.53;;;7.60;61.00;;;;;;5001183;28;20182;-82
2022/03/09 08:34:55;;;;;;;14.97;8.73;;;7.60;60.50;;;;;;5002488;28;20660;-83
2022/03/09 08:37:21;;;;;;;11.77;8.80;;;7.00;59.30;;;;;;5002672;28;20183;-82
2022/03/09 08:39:48;;;;;;;12.97;9.40;;;6.70;60.90;;;;;;5003062;28;20179;-83
2022/03/09 08:42:17;;;;;;;14.43;9.33;;;7.10;61.40;;;;;;5003404;28;20223;-83
2022/03/09 08:44:43;;;;;;;15.90;10.30;;;7.90;61.90;;;;;;5004383;28;20223;-83
2022/03/09 08:47:09;;;;;;;15.53;10.37;;;8.60;58.40;;;;;;5008815;28;20176;-82
2022/03/09 08:49:39;;;;;;;14.60;9.73;;;9.10;57.80;;;;;;5001194;28;20175;-82
2022/03/09 08:52:07;;;;;;;19.17;12.50;;;9.50;57.60;;;;;;5000421;28;20262;-83
2022/03/09 08:54:33;;;;;;;20.00;11.37;;;9.90;56.10;;;;;;5000000;28;20203;-83
2022/03/09 08:56:59;;;;;;;17.33;11.43;;;10.10;55.00;;;;;;4998753;28;20553;-83
2022/03/09 08:59:25;;;;;;;17.40;12.07;;;10.30;54.40;;;;;;5000071;28;20222;-83
2022/03/09 09:01:50;;;;;;;19.17;12.20;;;10.50;54.60;;;;;;5000306;28;20191;-83
2022/03/09 09:04:16;;;;;;;17.10;11.50;;;10.60;52.80;;;;;;5000003;28;20195;-83
2022/03/09 09:06:43;;;;;;;18.97;12.10;;;10.50;50.40;;;;;;4998510;28;20187;-83
2022/03/09 09:09:09;;;;;;;21.27;15.07;;;10.40;51.80;;;;;;5000040;28;20176;-82
2022/03/09 09:11:35;;;;;;;19.57;12.90;;;10.30;50.70;;;;;;4998924;28;20208;-83
2022/03/09 09:14:01;;;;;;;21.53;12.03;;;10.60;52.60;;;;;;4999785;28;20560;-82
2022/03/09 09:16:26;;;;;;;16.27;12.23;;;11.00;50.20;;;;;;4998593;28;20570;-83
2022/03/09 09:18:52;;;;;;;17.27;12.60;;;11.30;52.30;;;;;;5000188;28;20176;-83
2022/03/09 09:21:18;;;;;;;17.23;11.83;;;11.70;52.80;;;;;;4999106;28;20211;-83
2022/03/09 09:23:44;;;;;;;15.33;11.60;;;12.00;50.80;;;;;;4999805;28;20250;-83
2022/03/09 09:26:09;;;;;;;16.33;12.63;;;12.10;52.00;;;;;;4998247;28;20252;-80
2022/03/09 09:28:35;;;;;;;16.57;11.83;;;12.00;50.40;;;;;;4999456;28;20175;-81
2022/03/09 09:31:01;;;;;;;14.63;12.07;;;11.70;51.00;;;;;;4999705;28;20549;-80
2022/03/09 09:33:26;;;;;;;16.40;12.97;;;11.80;50.50;;;;;;4999718;28;20182;-80
2022/03/09 09:35:52;;;;;;;16.20;12.77;;;12.00;50.70;;;;;;4998073;28;20196;-80
2022/03/09 09:38:18;;;;;;;19.13;12.77;;;11.90;48.90;;;;;;4999455;28;20206;-80
2022/03/09 09:40:45;;;;;;;16.67;12.00;;;11.70;50.00;;;;;;4998417;28;20659;-80
2022/03/09 09:43:13;;;;;;;17.33;12.47;;;11.70;49.20;;;;;;4999568;28;20235;-80
2022/03/09 09:45:39;;;;;;;14.67;12.00;;;11.70;49.20;;;;;;4998028;28;20199;-81
2022/03/09 09:48:06;;;;;;;15.77;12.33;;;11.80;49.80;;;;;;4998609;28;20172;-80
2022/03/09 09:50:34;;;;;;;16.53;12.90;;;11.80;49.20;;;;;;4998473;28;20172;-81
2022/03/09 09:53:04;;;;;;;18.27;11.93;;;11.90;48.30;;;;;;4998479;28;20215;-81
2022/03/09 09:55:30;;;;;;;15.77;12.97;;;11.50;48.10;;;;;;4996822;28;20216;-81
2022/03/09 09:57:57;;;;;;;16.93;13.10;;;11.70;49.70;;;;;;4997885;28;20271;-81
2022/03/09 10:00:23;;;;;;;19.37;13.10;;;11.50;48.90;;;;;;4995270;28;20237;-82
2022/03/09 10:02:49;;;;;;;17.37;13.23;;;11.40;50.50;;;;;;4995182;28;20207;-82
2022/03/09 10:05:16;;;;;;;15.60;12.60;;;11.20;51.10;;;;;;5001544;28;20188;-82
2022/03/09 10:08:03;;;;;;;14.70;12.33;;;11.20;49.60;;;;;;5001392;28;20647;-81
2022/03/09 10:10:39;;;;;;;14.60;12.47;;;11.50;51.00;;;;;;5000093;28;20180;-81
2022/03/09 10:13:18;;;;;;;16.57;12.70;;;11.70;48.80;;;;;;4999860;28;20515;-81
2022/03/09 10:15:45;;;;;;;19.63;14.17;;;11.90;49.00;;;;;;5001072;28;20657;-81
2022/03/09 10:18:16;;;;;;;16.97;12.53;;;12.00;50.00;;;;;;5000060;28;20206;-82
2022/03/09 10:20:44;;;;;;;16.80;12.53;;;12.30;49.00;;;;;;5000166;28;20235;-81
2022/03/09 10:23:09;;;;;;;16.57;12.50;;;12.30;48.40;;;;;;5001058;28;20199;-81
2022/03/09 10:25:35;;;;;;;13.27;11.60;;;12.20;49.90;;;;;;4999497;28;20203;-81
2022/03/09 10:28:08;;;;;;;16.40;13.47;;;12.60;49.80;;;;;;5001403;28;20183;-82
2022/03/09 10:30:36;;;;;;;16.83;13.00;;;12.30;49.00;;;;;;5000671;28;20175;-82
2022/03/09 10:33:07;;;;;;;14.33;12.07;;;12.70;48.80;;;;;;5000617;28;20201;-81
2022/03/09 10:35:33;;;;;;;16.27;12.37;;;13.10;49.00;;;;;;5000859;28;20232;-82
2022/03/09 10:38:00;;;;;;;16.10;12.77;;;13.10;48.10;;;;;;5002029;28;20176;-81
2022/03/09 10:40:28;;;;;;;15.87;13.40;;;13.20;47.80;;;;;;5002890;28;20219;-81
2022/03/09 10:43:25;;;;;;;14.23;11.67;;;13.00;45.90;;;;;;5000711;28;20663;-82
2022/03/09 10:46:03;;;;;;;15.43;13.37;;;13.10;47.50;;;;;;5001146;28;20212;-81
2022/03/09 10:49:02;;;;;;;15.57;12.17;;;13.00;47.30;;;;;;5002199;28;20191;-84
2022/03/09 10:51:38;;;;;;;18.53;13.03;;;12.70;48.90;;;;;;5004196;28;20697;-82
2022/03/09 10:54:16;;;;;;;14.50;12.30;;;13.20;47.90;;;;;;5002880;28;20198;-81
2022/03/09 10:56:43;;;;;;;17.20;12.63;;;13.20;47.30;;;;;;5002490;28;20714;-82
2022/03/09 10:59:13;;;;;;;17.13;13.40;;;13.30;46.50;;;;;;5004436;28;20262;-82
2022/03/09 11:01:40;;;;;;;14.70;12.37;;;13.40;46.10;;;;;;5008024;28;20181;-81
2022/03/09 11:04:11;;;;;;;16.87;12.73;;;13.70;45.20;;;;;;5005573;28;20253;-83
2022/03/09 11:06:40;;;;;;;16.37;12.97;;;13.70;44.30;;;;;;5003500;28;20205;-83
2022/03/09 11:09:06;;;;;;;14.33;12.70;;;13.50;45.70;;;;;;5009203;28;20176;-81
2022/03/09 11:11:32;;;;;;;17.40;13.03;;;13.60;46.10;;;;;;5015009;28;20237;-81
2022/03/09 11:13:58;;;;;;;16.90;12.60;;;13.60;45.20;;;;;;5014055;28;20227;-81
2022/03/09 11:16:24;;;;;;;17.10;13.23;;;13.50;45.30;;;;;;5006451;28;20180;-82
2022/03/09 11:18:50;;;;;;;18.27;13.27;;;13.50;46.10;;;;;;5000088;28;20189;-81
2022/03/09 11:21:16;;;;;;;24.43;13.33;;;14.00;45.30;;;;;;4999862;28;20186;-82
2022/03/09 11:23:42;;;;;;;16.77;13.40;;;14.10;44.90;;;;;;4998398;28;20185;-82
2022/03/09 11:26:14;;;;;;;15.07;12.60;;;13.90;44.00;;;;;;4997674;28;20261;-82
2022/03/09 11:28:44;;;;;;;17.33;13.73;;;13.80;43.70;;;;;;4998367;28;20266;-82
2022/03/09 11:31:14;;;;;;;17.43;12.67;;;14.20;43.90;;;;;;4996849;28;20592;-82
2022/03/09 11:33:48;;;;;;;20.23;14.57;;;14.50;44.80;;;;;;5001023;28;20206;-82
2022/03/09 11:36:23;;;;;;;17.10;13.67;;;14.90;44.30;;;;;;5003381;28;20249;-82
2022/03/09 11:39:04;;;;;;;16.33;13.43;;;15.20;44.90;;;;;;5003710;28;20187;-81
2022/03/09 11:41:35;;;;;;;18.37;13.13;;;15.30;43.30;;;;;;5005274;28;20595;-82
2022/03/09 11:44:20;;;;;;;14.83;12.70;;;15.40;43.40;;;;;;5002777;28;20337;-82
2022/03/09 11:47:00;;;;;;;18.00;12.90;;;15.20;41.70;;;;;;5005664;28;20595;-81
2022/03/09 11:49:54;;;;;;;17.40;13.47;;;15.10;41.30;;;;;;5005830;28;20575;-82
2022/03/09 11:52:19;;;;;;;19.50;13.47;;;15.40;43.20;;;;;;5005698;28;20211;-82
2022/03/09 11:54:56;;;;;;;18.67;13.67;;;15.70;42.00;;;;;;5004702;28;20219;-82
2022/03/09 11:57:45;;;;;;;16.10;13.33;;;15.90;43.50;;;;;;5004458;28;20531;-82
2022/03/09 12:00:12;;;;;;;16.83;14.27;;;16.10;40.90;;;;;;5006159;28;20193;-81
2022/03/09 12:02:43;;;;;;;19.73;14.00;;;16.40;40.60;;;;;;5004217;28;20183;-82
2022/03/09 12:05:31;;;;;;;15.93;12.23;;;16.70;40.50;;;;;;5006503;28;20263;-82
2022/03/09 12:08:10;;;;;;;16.17;13.47;;;15.90;39.50;;;;;;5004805;28;20191;-83
2022/03/09 12:10:51;;;;;;;15.70;13.50;;;16.20;40.00;;;;;;5006317;28;20537;-83
2022/03/09 12:13:35;;;;;;;17.73;15.03;;;16.60;40.10;;;;;;5005708;28;20207;-83
2022/03/09 12:16:08;;;;;;;24.83;17.83;;;16.50;39.40;;;;;;5005923;28;20157;-82
2022/03/09 12:18:36;;;;;;;18.13;12.30;;;16.70;39.50;;;;;;5003972;28;20166;-82
2022/03/09 12:21:02;;;;;;;20.77;13.27;;;17.40;38.40;;;;;;5003392;28;20179;-82
2022/03/09 12:23:28;;;;;;;15.87;12.63;;;17.40;38.70;;;;;;5003503;28;20716;-82
2022/03/09 12:25:56;;;;;;;17.37;13.27;;;17.30;39.10;;;;;;5004871;28;20221;-82
2022/03/09 12:28:29;;;;;;;17.73;13.60;;;17.00;38.80;;;;;;5003965;28;20654;-82
2022/03/09 12:31:07;;;;;;;15.03;12.97;;;16.90;37.30;;;;;;5003544;28;20164;-82
2022/03/09 12:33:39;;;;;;;16.30;13.50;;;17.20;38.20;;;;;;5003869;28;20231;-81
2022/03/09 12:36:19;;;;;;;15.13;12.53;;;17.50;38.00;;;;;;5001363;28;20179;-81